Time;durP1;ratioP1;P1;durP2;ratioP2;P2;SDS_P1;SDS_P2;PMS_P1;PMS_P2;Temp;Humidity;BMP_temperature;BMP_pressure;BME280_temperature;BME280_humidity;BME280_pressure;Samples;Min_cycle;Max_cycle;Signal;HPM_P1;HPM_P2
2022/11/02 00:01:20;;;;;;;1999.90;999.90;;;16.00;99.90;;;;;;5016115;28;20037;-83
2022/11/02 00:03:47;;;;;;;1999.90;999.90;;;16.00;99.90;;;;;;5016158;28;20026;-83
2022/11/02 00:06:12;;;;;;;1999.90;999.90;;;16.00;99.90;;;;;;5033858;28;20040;-83
2022/11/02 00:08:38;;;;;;;1999.90;999.90;;;16.00;99.90;;;;;;5033675;28;20029;-83
2022/11/02 00:11:04;;;;;;;1999.90;999.90;;;16.00;99.90;;;;;;5032164;28;20029;-82
2022/11/02 00:13:29;;;;;;;1999.90;999.90;;;16.00;99.90;;;;;;5033339;28;20436;-84
2022/11/02 00:15:55;;;;;;;1999.90;999.90;;;15.90;99.90;;;;;;5033551;28;20029;-83
2022/11/02 00:18:21;;;;;;;1999.90;999.90;;;15.80;99.90;;;;;;5033876;28;20029;-83
2022/11/02 00:20:47;;;;;;;1999.90;999.90;;;15.80;99.90;;;;;;5033172;28;20055;-83
2022/11/02 00:23:14;;;;;;;1999.90;999.90;;;15.80;99.90;;;;;;5015148;28;20018;-83
2022/11/02 00:25:46;;;;;;;1999.90;999.90;;;15.70;99.90;;;;;;5014683;28;20033;-83
2022/11/02 00:28:13;;;;;;;1999.90;999.90;;;15.70;99.90;;;;;;5031108;28;20025;-83
2022/11/02 00:30:39;;;;;;;1999.90;999.90;;;15.60;99.90;;;;;;5033471;28;20053;-83
2022/11/02 00:33:04;;;;;;;1999.90;999.90;;;15.50;99.90;;;;;;5033255;28;20107;-83
2022/11/02 00:35:30;;;;;;;1999.90;999.90;;;15.50;99.90;;;;;;5032352;28;20053;-83
2022/11/02 00:37:55;;;;;;;1999.90;999.90;;;15.40;99.90;;;;;;5033932;28;20377;-83
2022/11/02 00:40:21;;;;;;;1999.90;999.90;;;15.40;99.90;;;;;;5037096;28;20097;-83
2022/11/02 00:42:47;;;;;;;1999.90;999.90;;;15.40;99.90;;;;;;5037122;28;20104;-83
2022/11/02 00:45:12;;;;;;;1999.90;999.90;;;15.40;99.90;;;;;;5014622;28;20030;-83
2022/11/02 00:47:38;;;;;;;1999.90;999.90;;;15.30;99.90;;;;;;5030122;28;20542;-83
2022/11/02 00:50:04;;;;;;;1999.90;999.90;;;15.30;99.90;;;;;;5058595;28;20040;-82
2022/11/02 00:52:30;;;;;;;1999.90;999.90;;;15.30;99.90;;;;;;5058074;28;20059;-82
2022/11/02 00:54:56;;;;;;;1999.90;999.90;;;15.30;99.90;;;;;;5056924;28;20041;-82
2022/11/02 00:57:22;;;;;;;1999.90;999.90;;;15.30;99.90;;;;;;5038660;28;20076;-83
2022/11/02 00:59:47;;;;;;;1999.90;999.90;;;15.40;99.90;;;;;;5002429;28;20033;-83
2022/11/02 01:02:13;;;;;;;1999.90;999.90;;;15.40;99.90;;;;;;5015113;28;20029;-83
2022/11/02 01:04:39;;;;;;;1999.90;999.90;;;15.50;99.90;;;;;;5014550;28;20026;-83
2022/11/02 01:07:04;;;;;;;1999.90;999.90;;;15.60;99.90;;;;;;5000292;28;20026;-83
2022/11/02 01:09:30;;;;;;;1999.90;999.90;;;15.60;99.90;;;;;;5018697;28;20073;-83
2022/11/02 01:11:56;;;;;;;1999.90;999.90;;;15.60;99.90;;;;;;5013081;28;20022;-83
2022/11/02 01:14:21;;;;;;;1999.90;999.90;;;15.50;99.90;;;;;;5012723;28;20481;-83
2022/11/02 01:16:47;;;;;;;1999.90;999.90;;;15.50;99.90;;;;;;5012462;28;20060;-82
2022/11/02 01:19:13;;;;;;;1999.90;999.90;;;15.40;99.90;;;;;;5012601;28;20022;-83
2022/11/02 01:21:39;;;;;;;1999.90;999.90;;;15.30;99.90;;;;;;5011299;28;20109;-83
2022/11/02 01:24:05;;;;;;;1999.90;999.90;;;15.30;99.90;;;;;;5011799;28;20544;-83
2022/11/02 01:26:31;;;;;;;1999.90;999.90;;;15.30;99.90;;;;;;5012249;28;20485;-83
2022/11/02 01:28:57;;;;;;;1999.90;999.90;;;15.30;99.90;;;;;;5012606;28;20026;-83
2022/11/02 01:31:22;;;;;;;1999.90;999.90;;;15.20;99.90;;;;;;5021307;28;20060;-83
2022/11/02 01:33:48;;;;;;;1999.90;999.90;;;15.20;99.90;;;;;;5032001;28;20033;-83
2022/11/02 01:36:16;;;;;;;1999.90;999.90;;;15.20;99.90;;;;;;5013905;28;20036;-83
2022/11/02 01:38:41;;;;;;;1999.90;999.90;;;15.10;99.90;;;;;;5032207;28;20030;-83
2022/11/02 01:41:08;;;;;;;1999.90;999.90;;;15.00;99.90;;;;;;5031638;28;20083;-83
2022/11/02 01:43:35;;;;;;;1999.90;999.90;;;15.00;99.90;;;;;;5032229;28;20036;-83
2022/11/02 01:46:33;;;;;;;1999.90;999.90;;;14.90;99.90;;;;;;5014697;28;20033;-82
2022/11/02 01:49:09;;;;;;;1999.90;999.90;;;14.80;99.90;;;;;;5031626;28;20116;-82
2022/11/02 01:51:47;;;;;;;1999.90;999.90;;;14.80;99.90;;;;;;5014105;28;20432;-83
2022/11/02 01:54:17;;;;;;;1999.90;999.90;;;14.70;99.90;;;;;;5031224;28;20037;-81
2022/11/02 01:56:47;;;;;;;1999.90;999.90;;;14.70;99.90;;;;;;5031734;28;20069;-82
2022/11/02 01:59:19;;;;;;;1999.90;999.90;;;14.70;99.90;;;;;;5014197;28;20024;-82
2022/11/02 02:01:46;;;;;;;1999.90;999.90;;;14.70;99.90;;;;;;5030414;28;20036;-82
2022/11/02 02:04:12;;;;;;;1999.90;999.90;;;14.60;99.90;;;;;;5012412;28;20022;-82
2022/11/02 02:06:39;;;;;;;1999.90;999.90;;;14.60;99.90;;;;;;5012162;28;20486;-83
2022/11/02 02:09:06;;;;;;;1999.90;999.90;;;14.60;99.90;;;;;;5012275;28;20026;-82
2022/11/02 02:11:38;;;;;;;1999.90;999.90;;;14.60;99.90;;;;;;4994542;28;20030;-82
2022/11/02 02:14:18;;;;;;;1999.90;999.90;;;14.60;99.90;;;;;;5012073;28;20030;-83
2022/11/02 02:17:09;;;;;;;1999.90;999.90;;;14.50;99.90;;;;;;5012192;28;20489;-82
2022/11/02 02:20:06;;;;;;;1999.90;999.90;;;14.50;99.90;;;;;;5011175;28;20041;-82
2022/11/02 02:23:10;;;;;;;1999.90;999.90;;;14.50;99.90;;;;;;5011849;28;20560;-83
2022/11/02 02:25:54;;;;;;;1999.90;999.90;;;14.50;99.90;;;;;;5014299;28;20025;-82
2022/11/02 02:28:47;;;;;;;1999.90;999.90;;;14.50;99.90;;;;;;5032028;28;20025;-82
2022/11/02 02:31:35;;;;;;;1999.90;999.90;;;14.50;99.90;;;;;;5031901;28;20029;-82
2022/11/02 02:34:16;;;;;;;1999.90;999.90;;;14.50;99.90;;;;;;5013646;28;20385;-82
2022/11/02 02:36:50;;;;;;;1999.90;999.90;;;14.40;99.90;;;;;;5015360;28;20052;-83
2022/11/02 02:39:21;;;;;;;1999.90;999.90;;;14.40;99.90;;;;;;5015535;28;20034;-82
2022/11/02 02:42:11;;;;;;;1999.90;999.90;;;14.40;99.90;;;;;;4997839;28;20022;-82
2022/11/02 02:44:41;;;;;;;1999.90;999.90;;;14.30;99.90;;;;;;4997138;28;20042;-82
2022/11/02 02:47:15;;;;;;;1999.90;999.90;;;14.20;99.90;;;;;;5014141;28;20435;-82
2022/11/02 02:49:47;;;;;;;1999.90;999.90;;;14.20;99.90;;;;;;5015245;28;20018;-82
2022/11/02 02:52:15;;;;;;;1999.90;999.90;;;14.20;99.90;;;;;;4995865;28;20029;-82
2022/11/02 02:54:45;;;;;;;1999.90;999.90;;;14.20;99.90;;;;;;4984424;28;20050;-82
2022/11/02 02:57:16;;;;;;;1999.90;999.90;;;14.10;99.90;;;;;;5015476;28;20069;-82
2022/11/02 02:59:44;;;;;;;1999.90;999.90;;;14.10;99.90;;;;;;5035195;28;20049;-82
2022/11/02 03:02:23;;;;;;;1999.90;999.90;;;14.00;99.90;;;;;;5035205;28;20028;-82
2022/11/02 03:04:49;;;;;;;1999.90;999.90;;;14.00;99.90;;;;;;5034921;28;20029;-82
2022/11/02 03:07:29;;;;;;;1999.90;999.90;;;13.90;99.90;;;;;;5034817;28;20033;-82
2022/11/02 03:10:27;;;;;;;1999.90;999.90;;;13.80;99.90;;;;;;5032826;28;20177;-82
2022/11/02 03:13:25;;;;;;;1999.90;999.90;;;13.80;99.90;;;;;;5021075;28;20497;-82
2022/11/02 03:16:00;;;;;;;1999.90;999.90;;;13.80;99.90;;;;;;5014741;28;20033;-82
2022/11/02 03:18:36;;;;;;;1999.90;999.90;;;13.70;99.90;;;;;;5015145;28;20022;-82
2022/11/02 03:21:36;;;;;;;1999.90;999.90;;;13.70;99.90;;;;;;4996587;28;20045;-82
2022/11/02 03:24:11;;;;;;;1999.90;999.90;;;13.60;99.90;;;;;;4993543;28;20033;-82
2022/11/02 03:27:17;;;;;;;1999.90;999.90;;;13.60;99.90;;;;;;5014102;28;20030;-82
2022/11/02 03:29:49;;;;;;;1999.90;999.90;;;13.50;99.90;;;;;;5014547;28;20026;-82
2022/11/02 03:32:32;;;;;;;1999.90;999.90;;;13.50;99.90;;;;;;4997556;28;20037;-82
2022/11/02 03:35:02;;;;;;;1999.90;999.90;;;13.50;99.90;;;;;;5014316;28;20034;-81
2022/11/02 03:37:38;;;;;;;1999.90;999.90;;;13.50;99.90;;;;;;5029549;28;20061;-82
2022/11/02 03:40:05;;;;;;;1999.90;999.90;;;13.60;99.90;;;;;;5034570;28;20048;-82
2022/11/02 03:42:33;;;;;;;1999.90;999.90;;;13.60;99.90;;;;;;5034292;28;20013;-82
2022/11/02 03:45:10;;;;;;;1999.90;999.90;;;13.60;99.90;;;;;;5033109;28;20032;-82
2022/11/02 03:47:36;;;;;;;1999.90;999.90;;;13.50;99.90;;;;;;5034094;28;20022;-82
2022/11/02 03:50:05;;;;;;;1999.90;999.90;;;13.50;99.90;;;;;;5034129;28;20022;-82
2022/11/02 03:52:33;;;;;;;1999.90;999.90;;;13.40;99.90;;;;;;5016063;28;20033;-82
2022/11/02 03:55:08;;;;;;;1999.90;999.90;;;13.40;99.90;;;;;;5033865;28;20037;-82
2022/11/02 03:57:43;;;;;;;1999.90;999.90;;;13.40;99.90;;;;;;5015688;28;20018;-82
2022/11/02 04:00:14;;;;;;;1999.90;999.90;;;13.40;99.90;;;;;;5033719;28;20427;-82
2022/11/02 04:02:44;;;;;;;1999.90;999.90;;;13.30;99.90;;;;;;5033812;28;20014;-82
2022/11/02 04:05:10;;;;;;;1999.90;999.90;;;13.20;99.90;;;;;;5016007;28;20063;-82
2022/11/02 04:10:23;;;;;;;1999.90;999.90;;;13.00;99.90;;;;;;5034109;28;20488;-82
2022/11/02 04:15:34;;;;;;;1999.90;999.90;;;12.80;99.90;;;;;;5032962;28;20116;-82
2022/11/02 04:20:49;;;;;;;1999.90;999.90;;;12.70;99.90;;;;;;5013883;28;20032;-81
2022/11/02 04:25:58;;;;;;;1999.90;999.90;;;12.60;99.90;;;;;;5013728;28;20041;-82
2022/11/02 04:28:24;;;;;;;1999.90;999.90;;;12.60;99.90;;;;;;4995138;28;20026;-82
2022/11/02 04:30:49;;;;;;;1999.90;999.90;;;12.60;99.90;;;;;;5013894;28;20030;-82
2022/11/02 04:33:33;;;;;;;1999.90;999.90;;;12.60;99.90;;;;;;4995948;28;20037;-82
2022/11/02 04:36:04;;;;;;;1999.90;999.90;;;12.60;99.90;;;;;;5018884;28;20061;-82
2022/11/02 04:38:39;;;;;;;1999.90;999.90;;;12.50;99.90;;;;;;5033046;28;20507;-82
2022/11/02 04:44:01;;;;;;;1999.90;999.90;;;12.50;99.90;;;;;;5033274;28;20177;-82
2022/11/02 04:46:28;;;;;;;1999.90;999.90;;;12.50;99.90;;;;;;5033120;28;20104;-82
2022/11/02 04:48:54;;;;;;;1999.90;999.90;;;12.50;99.90;;;;;;5032809;28;20102;-82
2022/11/02 04:51:21;;;;;;;1999.90;999.90;;;12.40;99.90;;;;;;5032624;28;20037;-82
2022/11/02 04:53:48;;;;;;;1999.90;999.90;;;12.40;99.90;;;;;;5032697;28;20083;-82
2022/11/02 04:56:14;;;;;;;1999.90;999.90;;;12.40;99.90;;;;;;5032729;28;20103;-82
2022/11/02 04:58:39;;;;;;;1999.90;999.90;;;12.30;99.90;;;;;;5032611;28;20485;-82
2022/11/02 05:01:06;;;;;;;1999.90;999.90;;;12.30;99.90;;;;;;5014913;28;20030;-81
2022/11/02 05:03:32;;;;;;;1999.90;999.90;;;12.20;99.90;;;;;;5015033;28;20025;-82
2022/11/02 05:05:58;;;;;;;1999.90;999.90;;;12.20;99.90;;;;;;5032774;28;20029;-82
2022/11/02 05:08:23;;;;;;;1999.90;999.90;;;12.20;99.90;;;;;;5014882;28;20026;-82
2022/11/02 05:10:54;;;;;;;1999.90;999.90;;;12.10;99.90;;;;;;5032270;28;20060;-82
2022/11/02 05:13:19;;;;;;;1999.90;999.90;;;12.20;99.90;;;;;;5032383;28;20037;-82
2022/11/02 05:15:45;;;;;;;1999.90;999.90;;;12.10;99.90;;;;;;5031284;28;20063;-82
2022/11/02 05:18:10;;;;;;;1999.90;999.90;;;12.10;99.90;;;;;;5032651;28;20056;-82
2022/11/02 05:20:36;;;;;;;1999.90;999.90;;;12.00;99.90;;;;;;5032468;28;20029;-82
2022/11/02 05:23:02;;;;;;;1999.90;999.90;;;12.00;99.90;;;;;;5031962;28;20427;-82
2022/11/02 05:25:27;;;;;;;1999.90;999.90;;;12.00;99.90;;;;;;5014249;28;20030;-82
2022/11/02 05:27:56;;;;;;;1999.90;999.90;;;12.00;99.90;;;;;;5013563;28;20159;-82
2022/11/02 05:30:21;;;;;;;1999.90;999.90;;;12.00;99.90;;;;;;5032426;28;20061;-82
2022/11/02 05:32:47;;;;;;;1999.90;999.90;;;12.00;99.90;;;;;;5032547;28;20569;-82
2022/11/02 05:35:13;;;;;;;1999.90;999.90;;;11.90;99.90;;;;;;5011774;28;20069;-82
2022/11/02 05:37:38;;;;;;;1999.90;999.90;;;12.00;99.90;;;;;;5013720;28;20049;-82
2022/11/02 05:40:05;;;;;;;1999.90;999.90;;;11.80;99.90;;;;;;4994783;28;20144;-82
2022/11/02 05:42:31;;;;;;;1999.90;999.90;;;11.80;99.90;;;;;;5012573;28;20105;-82
2022/11/02 05:44:56;;;;;;;1999.90;999.90;;;11.70;99.90;;;;;;5012498;28;20109;-82
2022/11/02 05:47:22;;;;;;;1999.90;999.90;;;11.60;99.90;;;;;;5012266;28;20194;-82
2022/11/02 05:49:47;;;;;;;1999.90;999.90;;;11.60;99.90;;;;;;5012327;28;20030;-82
2022/11/02 05:52:14;;;;;;;1999.90;999.90;;;11.50;99.90;;;;;;5012558;28;20084;-82
2022/11/02 05:54:39;;;;;;;1999.90;999.90;;;11.50;99.90;;;;;;5012637;28;20081;-82
2022/11/02 05:57:05;;;;;;;1999.90;999.90;;;11.50;99.90;;;;;;5031597;28;20052;-82
2022/11/02 05:59:31;;;;;;;1999.90;999.90;;;11.50;99.90;;;;;;5031990;28;20025;-82
2022/11/02 06:01:57;;;;;;;1999.90;999.90;;;11.40;99.90;;;;;;5031943;28;20025;-82
2022/11/02 06:04:22;;;;;;;1999.90;999.90;;;11.40;99.90;;;;;;5014433;28;20040;-82
2022/11/02 06:06:48;;;;;;;1999.90;999.90;;;11.30;99.90;;;;;;5014251;28;20029;-82
2022/11/02 06:09:14;;;;;;;1999.90;999.90;;;11.40;99.90;;;;;;5017487;28;20026;-82
2022/11/02 06:11:39;;;;;;;1999.90;999.90;;;11.40;99.90;;;;;;5035804;28;20034;-82
2022/11/02 06:14:05;;;;;;;1999.90;999.90;;;11.40;99.90;;;;;;5035661;28;20044;-82
2022/11/02 06:16:31;;;;;;;1999.90;999.90;;;11.30;99.90;;;;;;5017937;28;20388;-82
2022/11/02 06:18:56;;;;;;;1999.90;999.90;;;11.30;99.90;;;;;;5018102;28;20053;-82
2022/11/02 06:21:22;;;;;;;1999.90;999.90;;;11.30;99.90;;;;;;5034320;28;20021;-82
2022/11/02 06:23:48;;;;;;;1999.90;999.90;;;11.30;99.90;;;;;;5035463;28;20025;-82
2022/11/02 06:26:14;;;;;;;1999.90;999.90;;;11.30;99.90;;;;;;5035684;28;20091;-82
2022/11/02 06:28:40;;;;;;;1999.90;999.90;;;11.30;99.90;;;;;;5034902;28;20025;-82
2022/11/02 06:31:06;;;;;;;1999.90;999.90;;;11.30;99.90;;;;;;5011899;28;20029;-82
2022/11/02 06:33:31;;;;;;;1999.90;999.90;;;11.30;99.90;;;;;;5015175;28;20084;-82
2022/11/02 06:35:57;;;;;;;1999.90;999.90;;;11.30;99.90;;;;;;5013953;28;20025;-82
2022/11/02 06:38:23;;;;;;;1999.90;999.90;;;11.30;99.90;;;;;;5015268;28;20562;-82
2022/11/02 06:41:05;;;;;;;1999.90;999.90;;;11.30;99.90;;;;;;5015564;28;20030;-82
2022/11/02 06:43:31;;;;;;;1999.90;999.90;;;11.20;99.90;;;;;;5010691;28;20022;-82
2022/11/02 06:45:58;;;;;;;1999.90;999.90;;;11.20;99.90;;;;;;4996738;28;20032;-81
2022/11/02 06:48:25;;;;;;;1999.90;999.90;;;11.20;99.90;;;;;;5014057;28;20151;-82
2022/11/02 06:50:51;;;;;;;1999.90;999.90;;;11.20;99.90;;;;;;5015294;28;20084;-82
2022/11/02 06:53:17;;;;;;;1999.90;999.90;;;11.20;99.90;;;;;;4993739;28;20509;-82
2022/11/02 06:55:43;;;;;;;1999.90;999.90;;;11.20;99.90;;;;;;5005639;28;20037;-82
2022/11/02 06:58:09;;;;;;;1999.90;999.90;;;11.20;99.90;;;;;;5014874;28;20093;-82
2022/11/02 07:00:35;;;;;;;1999.90;999.90;;;11.20;99.90;;;;;;5006996;28;20026;-82
2022/11/02 07:03:06;;;;;;;1999.90;999.90;;;11.20;99.90;;;;;;4994163;28;20109;-82
2022/11/02 07:05:32;;;;;;;1999.90;999.90;;;11.20;99.90;;;;;;5005801;28;20045;-82
2022/11/02 07:07:58;;;;;;;1999.90;999.90;;;11.20;99.90;;;;;;5014239;28;20038;-82
2022/11/02 07:10:24;;;;;;;1999.90;999.90;;;11.30;99.90;;;;;;4999373;28;20575;-82
2022/11/02 07:12:55;;;;;;;1999.90;999.90;;;11.30;99.90;;;;;;4994411;28;20501;-82
2022/11/02 07:15:22;;;;;;;1999.90;999.90;;;11.30;99.90;;;;;;4993621;28;20054;-83
2022/11/02 07:17:47;;;;;;;1999.90;999.90;;;11.40;99.90;;;;;;4993223;28;20031;-82
2022/11/02 07:20:13;;;;;;;1999.90;999.90;;;11.40;99.90;;;;;;4996008;28;20113;-83
2022/11/02 07:22:40;;;;;;;1999.90;999.90;;;11.40;99.90;;;;;;4993428;28;20393;-83
2022/11/02 07:25:06;;;;;;;1999.90;999.90;;;11.40;99.90;;;;;;4992563;28;20110;-82
2022/11/02 07:27:36;;;;;;;1999.90;999.90;;;11.40;99.90;;;;;;4994079;28;20038;-82
2022/11/02 07:30:02;;;;;;;1999.90;999.90;;;11.40;99.90;;;;;;4994913;28;20042;-82
2022/11/02 07:32:28;;;;;;;1999.90;999.90;;;11.50;99.90;;;;;;5014322;28;20057;-82
2022/11/02 07:34:54;;;;;;;1999.90;999.90;;;11.60;99.90;;;;;;5013479;28;20056;-81
2022/11/02 07:37:19;;;;;;;1999.90;999.90;;;11.60;99.90;;;;;;5013849;28;20029;-81
2022/11/02 07:39:45;;;;;;;1999.90;999.90;;;11.70;99.90;;;;;;5000662;28;20117;-81
2022/11/02 07:42:10;;;;;;;1999.90;999.90;;;11.80;99.90;;;;;;5000052;28;20022;-83
2022/11/02 07:44:36;;;;;;;1999.90;999.90;;;11.90;99.90;;;;;;4992808;28;20113;-82
2022/11/02 07:47:02;;;;;;;1999.90;999.90;;;12.00;99.90;;;;;;4992000;28;20030;-78
2022/11/02 07:49:27;;;;;;;1999.90;999.90;;;12.10;99.90;;;;;;5001460;28;20551;-79
2022/11/02 07:51:55;;;;;;;1999.90;999.90;;;12.20;99.90;;;;;;4997107;28;20036;-78
2022/11/02 07:54:20;;;;;;;1999.90;999.90;;;12.30;99.90;;;;;;5009187;28;20112;-79
2022/11/02 07:56:46;;;;;;;1999.90;999.90;;;12.40;99.90;;;;;;5026394;28;20033;-79
2022/11/02 07:59:12;;;;;;;1999.90;999.90;;;12.50;99.90;;;;;;5013079;28;20034;-79
2022/11/02 08:01:37;;;;;;;1999.90;999.90;;;12.60;99.90;;;;;;5014696;28;20022;-79
2022/11/02 08:04:03;;;;;;;1999.90;999.90;;;12.70;99.90;;;;;;5001740;28;20030;-79
2022/11/02 08:06:29;;;;;;;1999.90;999.90;;;12.80;99.90;;;;;;5021204;28;20096;-79
2022/11/02 08:08:55;;;;;;;1999.90;999.90;;;13.00;99.90;;;;;;5033095;28;20514;-79
2022/11/02 08:11:21;;;;;;;1999.90;999.90;;;13.10;99.90;;;;;;5014541;28;20080;-80
2022/11/02 08:13:46;;;;;;;1999.90;999.90;;;13.10;99.90;;;;;;5013910;28;20038;-80
2022/11/02 08:16:12;;;;;;;1999.90;999.90;;;13.20;99.90;;;;;;5026746;28;20069;-79
2022/11/02 08:18:38;;;;;;;1999.90;999.90;;;13.30;99.90;;;;;;5011406;28;20034;-80
2022/11/02 08:21:03;;;;;;;1999.90;999.90;;;13.30;99.90;;;;;;5009966;28;20029;-79
2022/11/02 08:23:29;;;;;;;1999.90;999.90;;;13.40;99.90;;;;;;5017983;28;20072;-79
2022/11/02 08:25:58;;;;;;;1999.90;999.90;;;13.50;99.90;;;;;;5013052;28;20076;-79
2022/11/02 08:28:27;;;;;;;1999.90;999.90;;;13.50;99.90;;;;;;5021060;28;20030;-81
2022/11/02 08:30:53;;;;;;;1999.90;999.90;;;13.60;99.90;;;;;;5012340;28;20014;-81
2022/11/02 08:33:19;;;;;;;1999.90;999.90;;;13.70;99.90;;;;;;5017933;28;20026;-81
2022/11/02 08:35:46;;;;;;;1999.90;999.90;;;13.70;99.90;;;;;;5004348;28;20120;-81
2022/11/02 08:38:13;;;;;;;1999.90;999.90;;;13.80;99.90;;;;;;5027502;28;20057;-80
2022/11/02 08:40:38;;;;;;;1999.90;999.90;;;13.80;99.90;;;;;;4992478;28;20504;-80
2022/11/02 08:43:10;;;;;;;1999.90;999.90;;;13.90;99.90;;;;;;4992157;28;20030;-80
2022/11/02 08:45:38;;;;;;;1999.90;999.90;;;14.00;99.90;;;;;;5012292;28;20106;-80
2022/11/02 08:48:07;;;;;;;1999.90;999.90;;;14.00;99.90;;;;;;5010881;28;20034;-80
2022/11/02 08:50:33;;;;;;;1999.90;999.90;;;14.10;99.90;;;;;;5016601;28;20026;-81
2022/11/02 08:52:58;;;;;;;1999.90;999.90;;;14.20;99.90;;;;;;5021279;28;20056;-79
2022/11/02 08:55:24;;;;;;;1999.90;999.90;;;14.30;99.90;;;;;;5019157;28;20034;-79
2022/11/02 08:57:52;;;;;;;1999.90;999.90;;;14.40;99.90;;;;;;5011844;28;20110;-79
2022/11/02 09:00:21;;;;;;;1999.90;999.90;;;14.40;99.90;;;;;;5013965;28;20021;-80
2022/11/02 09:03:01;;;;;;;1999.90;999.90;;;14.50;99.90;;;;;;5016307;28;20468;-80
2022/11/02 09:05:29;;;;;;;1999.90;999.90;;;14.50;99.90;;;;;;4990063;28;20037;-79
2022/11/02 09:07:57;;;;;;;1999.90;999.90;;;14.60;99.90;;;;;;4993778;28;20022;-79
2022/11/02 09:10:23;;;;;;;1999.90;999.90;;;14.70;99.90;;;;;;5009190;28;20033;-79
2022/11/02 09:12:49;;;;;;;1999.90;999.90;;;14.80;99.90;;;;;;5020848;28;20026;-79
2022/11/02 09:15:15;;;;;;;1999.90;999.90;;;14.80;99.90;;;;;;5011344;28;20120;-79
2022/11/02 09:17:41;;;;;;;1999.90;999.90;;;14.90;99.90;;;;;;5012244;28;20030;-79
2022/11/02 09:20:07;;;;;;;1999.90;999.90;;;15.00;99.90;;;;;;5010092;28;20026;-80
2022/11/02 09:22:32;;;;;;;1999.90;999.90;;;15.10;99.90;;;;;;5010029;28;20037;-79
2022/11/02 09:24:58;;;;;;;1999.90;999.90;;;15.10;99.90;;;;;;5010807;28;20031;-78
2022/11/02 09:27:24;;;;;;;1999.90;999.90;;;15.30;99.90;;;;;;4996400;28;20051;-79
2022/11/02 09:29:49;;;;;;;1999.90;999.90;;;15.30;99.90;;;;;;5010516;28;20083;-79
2022/11/02 09:32:15;;;;;;;1999.90;999.90;;;15.40;99.90;;;;;;5010460;28;20049;-80
2022/11/02 09:34:40;;;;;;;1999.90;999.90;;;15.50;99.90;;;;;;5011316;28;20061;-79
2022/11/02 09:37:06;;;;;;;1999.90;999.90;;;15.50;99.90;;;;;;5013773;28;20512;-79
2022/11/02 09:39:31;;;;;;;1999.90;999.90;;;15.60;99.90;;;;;;5015304;28;20509;-78
2022/11/02 09:42:05;;;;;;;1999.90;999.90;;;15.80;99.90;;;;;;5016630;28;20025;-79
2022/11/02 09:44:53;;;;;;;1999.90;999.90;;;15.90;99.90;;;;;;4993052;28;20014;-79
2022/11/02 09:47:20;;;;;;;1999.90;999.90;;;16.00;99.90;;;;;;5008589;28;20444;-79
2022/11/02 09:49:46;;;;;;;1999.90;999.90;;;16.10;99.90;;;;;;5017432;28;20018;-79
2022/11/02 09:52:26;;;;;;;1999.90;999.90;;;16.20;99.90;;;;;;5010861;28;20026;-79
2022/11/02 09:54:55;;;;;;;1999.90;999.90;;;16.30;99.90;;;;;;4994235;28;20040;-80
2022/11/02 09:57:30;;;;;;;1999.90;999.90;;;16.40;99.90;;;;;;4993201;28;20022;-79
2022/11/02 09:59:56;;;;;;;1999.90;999.90;;;16.60;99.90;;;;;;5015101;28;20026;-78
2022/11/02 10:02:22;;;;;;;1999.90;999.90;;;16.70;99.90;;;;;;5018439;28;20502;-79
2022/11/02 10:05:12;;;;;;;1999.90;999.90;;;16.80;99.90;;;;;;5023361;28;20112;-79
2022/11/02 10:08:01;;;;;;;1999.90;999.90;;;16.80;99.90;;;;;;5009019;28;20065;-78
2022/11/02 10:10:33;;;;;;;1999.90;999.90;;;16.90;99.90;;;;;;5006428;28;20026;-77
2022/11/02 10:13:17;;;;;;;1999.90;999.90;;;17.00;99.90;;;;;;4998567;28;20052;-79
2022/11/02 10:15:46;;;;;;;1999.90;999.90;;;17.00;99.90;;;;;;5007365;28;20034;-78
2022/11/02 10:18:32;;;;;;;1999.90;999.90;;;17.10;99.90;;;;;;5003501;28;20536;-78
2022/11/02 10:21:01;;;;;;;1999.90;999.90;;;17.30;99.90;;;;;;4991342;28;20469;-79
2022/11/02 10:23:29;;;;;;;1999.90;999.90;;;17.20;99.90;;;;;;5009481;28;20097;-79
2022/11/02 10:25:55;;;;;;;1999.90;999.90;;;17.40;99.90;;;;;;5013824;28;20037;-79
2022/11/02 10:28:29;;;;;;;1999.90;999.90;;;17.60;99.90;;;;;;5007823;28;20038;-78
2022/11/02 10:30:54;;;;;;;1999.90;999.90;;;17.70;99.90;;;;;;5001983;28;20038;-80
2022/11/02 10:33:28;;;;;;;1999.90;999.90;;;18.00;99.90;;;;;;5009442;28;20033;-78
2022/11/02 10:36:06;;;;;;;1999.90;999.90;;;18.30;99.90;;;;;;5009516;28;20059;-79
2022/11/02 10:39:04;;;;;;;1999.90;999.90;;;18.20;99.90;;;;;;5007645;28;20444;-79
2022/11/02 10:41:48;;;;;;;1999.90;999.90;;;18.00;99.90;;;;;;5012639;28;20509;-78
2022/11/02 10:44:51;;;;;;;1999.90;999.90;;;18.00;99.90;;;;;;5026071;28;20044;-79
2022/11/02 10:47:26;;;;;;;1999.90;999.90;;;17.90;99.90;;;;;;4992126;28;20053;-79
2022/11/02 10:50:25;;;;;;;1999.90;999.90;;;17.90;99.90;;;;;;5009063;28;20030;-80
2022/11/02 10:52:51;;;;;;;1999.90;999.90;;;17.80;99.90;;;;;;5008822;28;20494;-80
2022/11/02 10:55:38;;;;;;;1999.90;999.90;;;17.90;99.90;;;;;;4999652;28;20037;-79
2022/11/02 10:58:08;;;;;;;1999.90;999.90;;;17.90;99.90;;;;;;4996112;28;20083;-77
2022/11/02 11:00:35;;;;;;;1999.90;999.90;;;18.30;99.90;;;;;;5013086;28;20029;-78
2022/11/02 11:03:11;;;;;;;1999.90;999.90;;;18.10;99.90;;;;;;5012594;28;20018;-79
2022/11/02 11:05:48;;;;;;;1999.90;999.90;;;17.70;99.90;;;;;;4994938;28;20037;-79
2022/11/02 11:08:33;;;;;;;1999.90;999.90;;;17.80;99.90;;;;;;4995558;28;20034;-79
2022/11/02 11:11:19;;;;;;;1999.90;999.90;;;17.70;99.90;;;;;;5001685;28;20029;-79
2022/11/02 11:14:03;;;;;;;1999.90;999.90;;;17.50;99.90;;;;;;5011157;28;20057;-79
2022/11/02 11:16:43;;;;;;;1999.90;999.90;;;17.50;99.90;;;;;;5011940;28;20018;-77
2022/11/02 11:19:38;;;;;;;1999.90;999.90;;;17.30;99.90;;;;;;5006566;28;20042;-78
2022/11/02 11:22:30;;;;;;;1999.90;999.90;;;17.20;99.90;;;;;;5008647;28;20037;-78
2022/11/02 11:25:18;;;;;;;1999.90;999.90;;;17.20;99.90;;;;;;5017182;28;20053;-78
2022/11/02 11:27:53;;;;;;;1999.90;999.90;;;17.20;99.90;;;;;;5015366;28;20033;-78
2022/11/02 11:30:35;;;;;;;1999.90;999.90;;;17.40;99.90;;;;;;5019017;28;20446;-80
2022/11/02 11:33:04;;;;;;;1999.90;999.90;;;17.50;99.90;;;;;;5005136;28;20055;-80
2022/11/02 11:35:36;;;;;;;1999.90;999.90;;;17.80;99.90;;;;;;4996649;28;20033;-80
2022/11/02 11:38:15;;;;;;;1999.90;999.90;;;18.00;99.90;;;;;;5015043;28;20025;-79
2022/11/02 11:40:45;;;;;;;1999.90;999.90;;;17.90;99.90;;;;;;5009854;28;20056;-79
2022/11/02 11:43:16;;;;;;;1999.90;999.90;;;17.70;99.90;;;;;;5009633;28;20436;-79
2022/11/02 11:46:00;;;;;;;1999.90;999.90;;;17.90;99.90;;;;;;5011748;28;20071;-80
2022/11/02 11:48:51;;;;;;;1999.90;999.90;;;18.00;99.90;;;;;;5011928;28;20543;-78
2022/11/02 11:51:28;;;;;;;1999.90;999.90;;;18.10;99.90;;;;;;5003524;28;20469;-78
2022/11/02 11:54:27;;;;;;;1999.90;999.90;;;18.00;99.90;;;;;;5015876;28;20046;-79
2022/11/02 11:56:55;;;;;;;1999.90;999.90;;;18.00;99.90;;;;;;4957665;28;20049;-78
2022/11/02 11:59:25;;;;;;;1999.90;999.90;;;18.00;99.90;;;;;;5013802;28;20069;-78
2022/11/02 12:01:55;;;;;;;1999.90;999.90;;;18.00;99.90;;;;;;4992833;28;20042;-78
2022/11/02 12:04:31;;;;;;;1999.90;999.90;;;17.90;99.90;;;;;;5016183;28;20030;-79
2022/11/02 12:07:35;;;;;;;1999.90;999.90;;;17.80;99.90;;;;;;5006747;28;20053;-79
2022/11/02 12:10:29;;;;;;;1999.90;999.90;;;17.80;99.90;;;;;;4929295;29;20067;-77
2022/11/02 12:13:11;;;;;;;1999.90;999.90;;;17.90;99.90;;;;;;4930476;29;20030;-78
2022/11/02 12:15:48;;;;;;;1999.90;999.90;;;18.30;99.90;;;;;;4939836;29;20039;-78
2022/11/02 12:18:32;;;;;;;1999.90;999.90;;;18.10;99.90;;;;;;4938875;29;20508;-78
2022/11/02 12:21:14;;;;;;;1999.90;999.90;;;18.00;99.90;;;;;;4931331;29;20028;-77
2022/11/02 12:23:57;;;;;;;1999.90;999.90;;;18.10;99.90;;;;;;4932824;29;20182;-77
2022/11/02 12:26:45;;;;;;;1999.90;999.90;;;18.30;99.90;;;;;;4937226;29;20034;-80
2022/11/02 12:29:18;;;;;;;1999.90;999.90;;;18.10;99.90;;;;;;4929935;29;20036;-79
2022/11/02 12:31:54;;;;;;;1999.90;999.90;;;17.80;99.90;;;;;;4943535;29;20054;-80